Time;durP1;ratioP1;P1;durP2;ratioP2;P2;SDS_P1;SDS_P2;PMS_P1;PMS_P2;Temp;Humidity;BMP_temperature;BMP_pressure;BME280_temperature;BME280_humidity;BME280_pressure;Samples;Min_cycle;Max_cycle;Signal;HPM_P1;HPM_P2
2023/11/08 00:01:01;;;;;;;3.90;1.00;;;;;;;5.23;81.97;92882.56;2070934;69;20148;-79
2023/11/08 00:03:26;;;;;;;1.10;1.00;;;;;;;5.04;83.07;92882.34;2068206;69;20227;-79
2023/11/08 00:05:56;;;;;;;1.50;1.20;;;;;;;5.12;82.95;92871.13;2071764;69;20223;-79
2023/11/08 00:08:21;;;;;;;2.58;1.00;;;;;;;5.12;82.61;92869.06;2075146;69;20155;-78
2023/11/08 00:10:49;;;;;;;2.65;0.90;;;;;;;4.94;81.88;92861.97;2071587;69;20200;-79
2023/11/08 00:13:20;;;;;;;1.83;1.10;;;;;;;4.61;83.75;92839.00;2075060;69;20146;-79
2023/11/08 00:15:48;;;;;;;1.10;1.00;;;;;;;4.84;82.53;92848.66;2071868;69;20135;-79
2023/11/08 00:18:14;;;;;;;3.50;1.00;;;;;;;4.83;82.42;92844.38;2071868;69;20135;-80
2023/11/08 00:20:39;;;;;;;1.60;1.25;;;;;;;4.89;82.92;92865.72;2075067;69;20152;-79
2023/11/08 00:23:06;;;;;;;1.90;1.40;;;;;;;4.90;82.69;92865.16;2075031;69;20136;-79
2023/11/08 00:25:35;;;;;;;2.10;1.00;;;;;;;4.87;82.44;92868.38;2075053;69;20152;-78
2023/11/08 00:28:01;;;;;;;2.83;1.83;;;;;;;4.48;85.02;92879.03;2075053;69;20152;-79
2023/11/08 00:30:27;;;;;;;1.80;1.50;;;;;;;4.69;83.99;92875.94;2071691;69;20140;-78
2023/11/08 00:32:53;;;;;;;3.13;1.60;;;;;;;4.71;83.49;92873.31;2075163;69;20136;-78
2023/11/08 00:35:19;;;;;;;3.28;1.35;;;;;;;4.72;83.08;92863.63;2071892;69;20128;-78
2023/11/08 00:37:47;;;;;;;1.23;1.10;;;;;;;4.38;84.31;92861.44;2071775;69;20163;-78
2023/11/08 00:40:14;;;;;;;2.15;1.30;;;;;;;4.51;85.30;92873.06;2075027;69;20182;-78
2023/11/08 00:42:40;;;;;;;2.35;1.20;;;;;;;4.61;83.83;92880.81;2075056;69;20162;-79
2023/11/08 00:45:07;;;;;;;1.38;1.00;;;;;;;4.62;83.21;92891.41;2075128;69;20621;-79
2023/11/08 00:47:33;;;;;;;2.28;1.08;;;;;;;4.23;83.05;92874.16;2071899;69;20238;-79
2023/11/08 00:50:04;;;;;;;1.95;1.10;;;;;;;4.46;83.19;92884.44;2071915;69;20139;-79
2023/11/08 00:52:31;;;;;;;2.00;1.10;;;;;;;4.53;82.88;92887.16;2072157;69;20227;-79
2023/11/08 00:54:57;;;;;;;2.38;1.23;;;;;;;4.47;82.21;92885.91;2072821;69;20246;-78
2023/11/08 00:57:22;;;;;;;1.88;1.30;;;;;;;4.43;82.78;92894.66;2075943;69;20128;-79
2023/11/08 00:59:48;;;;;;;1.20;1.00;;;;;;;4.37;82.42;92896.22;2075759;69;20232;-78
2023/11/08 01:02:17;;;;;;;1.50;1.20;;;;;;;4.25;82.61;92873.59;2075307;69;20131;-79
2023/11/08 01:04:44;;;;;;;4.43;1.25;;;;;;;4.37;82.48;92904.56;2075009;69;20156;-78
2023/11/08 01:07:17;;;;;;;2.08;1.20;;;;;;;4.29;82.35;92899.75;2075175;69;20135;-78
2023/11/08 01:09:43;;;;;;;1.30;1.20;;;;;;;4.31;82.93;92899.97;2071713;69;20234;-80
2023/11/08 01:12:09;;;;;;;2.42;1.10;;;;;;;4.31;82.70;92896.44;2075401;69;20359;-79
2023/11/08 01:14:35;;;;;;;1.80;0.90;;;;;;;4.11;83.52;92891.88;2074981;69;20152;-78
2023/11/08 01:17:01;;;;;;;1.00;0.90;;;;;;;4.17;83.70;92901.53;2074983;69;20191;-78
2023/11/08 01:19:28;;;;;;;4.05;0.90;;;;;;;4.25;82.79;92902.19;2071467;69;20658;-78
2023/11/08 01:21:54;;;;;;;2.58;0.73;;;;;;;4.21;83.04;92901.84;2071496;69;20578;-78
2023/11/08 01:24:22;;;;;;;1.05;0.90;;;;;;;4.01;82.90;92880.59;2071423;69;20160;-79
2023/11/08 01:26:48;;;;;;;1.42;0.90;;;;;;;4.15;83.17;92906.16;2074868;69;20183;-79
2023/11/08 01:29:13;;;;;;;1.13;0.90;;;;;;;4.20;82.94;92902.41;2074952;69;20159;-79
2023/11/08 01:31:39;;;;;;;1.00;0.88;;;;;;;4.11;82.43;92892.59;2074690;69;20148;-79
2023/11/08 01:34:05;;;;;;;0.95;0.80;;;;;;;4.12;82.64;92902.44;2075054;69;20249;-79
2023/11/08 01:36:30;;;;;;;1.05;0.90;;;;;;;4.02;83.50;92907.13;2074876;69;20132;-79
2023/11/08 01:38:58;;;;;;;0.90;0.88;;;;;;;3.95;84.18;92903.09;2071071;69;20174;-78
2023/11/08 01:41:24;;;;;;;1.20;1.10;;;;;;;4.00;83.38;92904.94;2068894;69;20707;-79
2023/11/08 01:43:51;;;;;;;1.25;1.00;;;;;;;4.03;83.28;92892.66;2068974;69;20227;-78
2023/11/08 01:46:24;;;;;;;1.70;1.05;;;;;;;3.97;84.16;92900.47;2075045;69;20550;-79
2023/11/08 01:48:54;;;;;;;1.45;1.00;;;;;;;4.01;83.73;92898.03;2074909;69;20152;-79
2023/11/08 01:51:21;;;;;;;1.42;1.00;;;;;;;3.82;84.43;92900.53;2075074;69;20594;-79
2023/11/08 01:53:49;;;;;;;2.05;1.35;;;;;;;3.85;84.18;92907.00;2074705;69;20166;-79
2023/11/08 01:56:16;;;;;;;1.83;1.10;;;;;;;3.86;84.03;92895.31;2074789;69;20135;-78
2023/11/08 01:58:42;;;;;;;1.05;0.93;;;;;;;3.90;83.67;92908.88;2071173;69;20216;-79
2023/11/08 02:01:09;;;;;;;1.20;1.10;;;;;;;3.86;83.23;92894.59;2074871;69;20148;-80
2023/11/08 02:03:37;;;;;;;0.80;0.80;;;;;;;3.89;83.26;92896.97;2071581;69;20151;-79
2023/11/08 02:06:04;;;;;;;1.55;0.90;;;;;;;3.74;83.44;92913.75;2075034;69;20147;-79
2023/11/08 02:08:31;;;;;;;0.95;0.80;;;;;;;3.79;83.55;92912.78;2074997;69;20213;-80
2023/11/08 02:10:58;;;;;;;0.93;0.85;;;;;;;3.78;82.76;92908.53;2071253;69;20248;-79
2023/11/08 02:13:24;;;;;;;1.92;0.80;;;;;;;3.73;82.53;92899.06;2071315;69;20183;-79
2023/11/08 02:15:50;;;;;;;0.95;0.85;;;;;;;3.81;83.20;92912.97;2071344;69;20175;-79
2023/11/08 02:18:16;;;;;;;0.70;0.70;;;;;;;3.85;82.13;92915.38;2074783;69;20175;-79
2023/11/08 02:20:43;;;;;;;3.17;1.02;;;;;;;3.31;83.65;92905.13;2074844;69;20147;-79
2023/11/08 02:23:08;;;;;;;1.10;1.00;;;;;;;3.56;83.58;92919.16;2074791;69;20176;-80
2023/11/08 02:25:34;;;;;;;1.75;1.20;;;;;;;3.67;83.54;92926.38;2074597;69;20159;-79
2023/11/08 02:28:00;;;;;;;2.35;1.20;;;;;;;3.67;83.09;92918.03;2074863;69;20186;-79
2023/11/08 02:30:26;;;;;;;2.85;1.15;;;;;;;3.21;83.31;92892.34;2074858;69;20238;-79
2023/11/08 02:32:52;;;;;;;1.40;1.10;;;;;;;3.55;83.63;92919.72;2074734;69;20576;-79
2023/11/08 02:35:18;;;;;;;1.98;1.20;;;;;;;3.58;83.19;92935.31;2074945;69;20369;-80
2023/11/08 02:37:46;;;;;;;2.00;0.98;;;;;;;3.40;82.91;92911.41;2074639;69;20596;-79
2023/11/08 02:40:14;;;;;;;3.13;1.00;;;;;;;3.40;83.51;92945.56;2074631;69;20611;-79
2023/11/08 02:42:48;;;;;;;3.28;1.90;;;;;;;3.47;82.91;92939.22;2074954;69;20202;-79
2023/11/08 02:45:14;;;;;;;4.10;1.88;;;;;;;3.53;82.73;92944.63;2072551;69;20307;-79
2023/11/08 02:47:40;;;;;;;2.58;1.90;;;;;;;3.22;84.09;92943.91;2076215;69;20246;-79
2023/11/08 02:50:07;;;;;;;3.70;1.75;;;;;;;3.16;83.77;92938.53;2075363;69;20239;-79
2023/11/08 02:52:34;;;;;;;2.65;1.60;;;;;;;3.29;83.27;92945.91;2075011;69;20156;-79
2023/11/08 02:54:59;;;;;;;2.30;1.50;;;;;;;3.31;83.43;92946.84;2074217;69;20178;-79
2023/11/08 02:57:29;;;;;;;1.80;1.23;;;;;;;3.18;83.46;92949.84;2074829;69;20152;-80
2023/11/08 02:59:55;;;;;;;2.72;1.10;;;;;;;3.21;82.79;92936.84;2071608;69;20496;-79
2023/11/08 03:02:22;;;;;;;2.40;1.05;;;;;;;3.18;83.11;92938.69;2069411;69;20136;-79
2023/11/08 03:04:48;;;;;;;1.50;1.10;;;;;;;3.29;83.34;92951.47;2071456;69;20555;-78
2023/11/08 03:07:14;;;;;;;1.30;1.10;;;;;;;3.30;82.97;92945.38;2068093;69;20157;-79
2023/11/08 03:09:41;;;;;;;2.17;0.98;;;;;;;3.19;82.45;92951.31;2071619;69;20152;-78
2023/11/08 03:12:08;;;;;;;1.90;1.20;;;;;;;3.10;82.66;92937.22;2071600;69;20153;-78
2023/11/08 03:14:36;;;;;;;1.73;1.20;;;;;;;2.65;83.79;92950.53;2071451;69;20618;-78
2023/11/08 03:17:02;;;;;;;1.45;1.00;;;;;;;3.03;84.58;92938.72;2071475;69;20140;-79
2023/11/08 03:19:42;;;;;;;1.05;0.93;;;;;;;3.16;84.01;92949.66;2068135;69;20230;-78
2023/11/08 03:22:16;;;;;;;1.33;0.80;;;;;;;3.19;83.93;92951.31;2068201;69;20183;-79
2023/11/08 03:24:44;;;;;;;;;;;;;;;3.20;83.43;92946.47;2071460;69;20208;-79
2023/11/08 03:27:12;;;;;;;1.10;0.90;;;;;;;3.21;83.53;92939.63;2071422;69;20422;-78
2023/11/08 03:29:38;;;;;;;2.15;1.70;;;;;;;2.96;84.28;92947.78;2071317;69;20309;-79
2023/11/08 03:32:04;;;;;;;3.20;1.70;;;;;;;2.90;85.05;92950.75;2071483;69;20136;-79
2023/11/08 03:34:33;;;;;;;3.45;1.90;;;;;;;3.02;83.87;92943.53;2071493;69;20167;-79
2023/11/08 03:36:59;;;;;;;4.53;1.80;;;;;;;3.08;83.35;92965.59;2071462;69;20650;-79
2023/11/08 03:39:24;;;;;;;3.67;1.80;;;;;;;3.02;83.29;92968.56;2068047;69;20199;-79
2023/11/08 03:41:51;;;;;;;1.90;1.52;;;;;;;3.00;82.89;92967.63;2068093;69;20156;-79
2023/11/08 03:44:17;;;;;;;1.50;1.38;;;;;;;2.89;83.24;92957.63;2071607;69;20144;-79
2023/11/08 03:46:49;;;;;;;1.38;1.27;;;;;;;2.98;82.74;92978.59;2071555;69;20210;-79
2023/11/08 03:49:15;;;;;;;2.55;1.20;;;;;;;2.80;84.50;92983.94;2071368;69;20158;-78
2023/11/08 03:51:40;;;;;;;2.13;1.30;;;;;;;2.97;83.85;92985.41;2071466;69;20144;-79
2023/11/08 03:54:06;;;;;;;1.58;1.20;;;;;;;3.02;83.51;92987.28;2071271;69;20228;-79
2023/11/08 03:56:32;;;;;;;1.40;1.20;;;;;;;3.01;83.23;92983.00;2071497;69;20160;-80
2023/11/08 03:58:58;;;;;;;2.17;1.65;;;;;;;2.78;84.12;92994.09;2071639;69;20142;-80
2023/11/08 04:01:24;;;;;;;7.40;1.70;;;;;;;2.26;84.40;92976.75;2071619;69;20147;-79
2023/11/08 04:03:50;;;;;;;2.00;1.55;;;;;;;2.60;84.65;92989.63;2071536;69;20148;-79
2023/11/08 04:06:15;;;;;;;2.33;1.63;;;;;;;2.75;83.49;92998.00;2071661;69;20497;-79
2023/11/08 04:08:41;;;;;;;3.72;1.40;;;;;;;2.76;83.40;92999.50;2071563;69;20152;-79
2023/11/08 04:11:07;;;;;;;1.92;1.30;;;;;;;2.82;83.71;92999.31;2071422;69;20148;-79
2023/11/08 04:13:32;;;;;;;1.58;1.10;;;;;;;2.85;83.72;92987.09;2071452;69;20137;-79
2023/11/08 04:15:58;;;;;;;1.65;1.30;;;;;;;2.88;83.39;92995.03;2071639;69;20168;-79
2023/11/08 04:18:24;;;;;;;3.28;1.80;;;;;;;2.69;84.10;93000.94;2071516;69;20589;-79
2023/11/08 04:20:49;;;;;;;3.60;2.00;;;;;;;2.68;84.00;92998.72;2071612;69;20144;-79
2023/11/08 04:23:15;;;;;;;2.67;1.90;;;;;;;2.65;83.38;92983.13;2072026;69;20174;-79
2023/11/08 04:25:44;;;;;;;1.50;1.40;;;;;;;2.77;83.10;92992.63;2072017;69;20156;-79
2023/11/08 04:28:10;;;;;;;2.05;1.67;;;;;;;2.69;83.56;92998.16;2072009;69;20239;-79
2023/11/08 04:30:35;;;;;;;1.92;1.40;;;;;;;2.66;83.25;92995.78;2072013;69;20136;-79
2023/11/08 04:33:01;;;;;;;1.67;1.55;;;;;;;2.61;83.06;92980.75;2071984;69;20124;-79
2023/11/08 04:35:27;;;;;;;2.38;1.70;;;;;;;2.65;83.19;92983.13;2072199;69;20171;-79
2023/11/08 04:37:52;;;;;;;2.53;1.50;;;;;;;2.66;82.66;92988.16;2075218;69;20179;-79
2023/11/08 04:40:18;;;;;;;2.00;1.50;;;;;;;2.60;82.93;92984.06;2072888;69;20152;-79
2023/11/08 04:42:44;;;;;;;5.45;2.40;;;;;;;2.35;84.02;92981.03;2072149;69;20159;-79
2023/11/08 04:45:09;;;;;;;6.28;2.15;;;;;;;2.45;83.23;92979.94;2072216;69;20155;-79
2023/11/08 04:47:37;;;;;;;3.45;2.30;;;;;;;2.55;82.64;92980.16;2072041;69;20136;-79
2023/11/08 04:50:03;;;;;;;2.13;1.80;;;;;;;2.42;82.93;92971.97;2071997;69;20160;-79
2023/11/08 04:52:30;;;;;;;5.22;2.22;;;;;;;1.80;85.01;92971.00;2072111;69;20163;-79
2023/11/08 04:54:57;;;;;;;4.32;2.20;;;;;;;2.35;84.30;92979.00;2071816;69;20171;-79
2023/11/08 04:57:23;;;;;;;3.47;1.95;;;;;;;2.33;83.54;92967.69;2072009;69;20239;-79
2023/11/08 04:59:49;;;;;;;3.22;2.20;;;;;;;2.11;83.57;92974.66;2068656;69;20310;-79
2023/11/08 05:02:16;;;;;;;3.47;2.50;;;;;;;2.27;83.46;92981.75;2071949;69;20148;-79
2023/11/08 05:04:45;;;;;;;4.68;3.08;;;;;;;2.12;84.87;92984.47;2071981;69;20156;-79
2023/11/08 05:07:14;;;;;;;5.50;3.58;;;;;;;2.15;83.89;92983.34;2071981;69;20260;-79
2023/11/08 05:09:40;;;;;;;6.35;3.17;;;;;;;2.12;83.72;92969.84;2068601;69;20172;-79
2023/11/08 05:12:06;;;;;;;4.85;3.28;;;;;;;2.10;84.20;92992.59;2072006;69;20232;-79
2023/11/08 05:14:32;;;;;;;7.68;4.00;;;;;;;2.19;83.89;93005.97;2071896;69;20217;-79
2023/11/08 05:16:59;;;;;;;7.68;4.05;;;;;;;2.18;83.89;93012.06;2071998;69;20156;-79
2023/11/08 05:19:25;;;;;;;9.23;3.88;;;;;;;2.14;83.10;93009.66;2071823;69;20260;-79
2023/11/08 05:21:51;;;;;;;5.68;3.60;;;;;;;2.06;82.96;92992.19;2071874;69;20184;-79
2023/11/08 05:24:16;;;;;;;6.47;3.25;;;;;;;1.91;84.02;93006.03;2071710;69;20136;-79
2023/11/08 05:26:44;;;;;;;6.88;3.35;;;;;;;2.08;83.49;93022.22;2071936;69;20604;-79
2023/11/08 05:29:09;;;;;;;8.95;3.58;;;;;;;1.96;82.92;93010.66;2071859;69;20190;-79
2023/11/08 05:31:36;;;;;;;5.50;3.30;;;;;;;2.02;83.25;93025.91;2071854;69;20148;-79
2023/11/08 05:34:02;;;;;;;6.93;3.40;;;;;;;2.05;83.00;93024.03;2071778;69;20146;-79
2023/11/08 05:36:29;;;;;;;5.60;3.67;;;;;;;1.93;83.34;93039.56;2071926;69;20152;-79
2023/11/08 05:38:55;;;;;;;10.75;6.43;;;;;;;1.60;85.77;93046.72;2071773;69;20144;-79
2023/11/08 05:41:21;;;;;;;12.82;4.88;;;;;;;1.90;84.60;93038.59;2071754;69;20156;-79
2023/11/08 05:43:47;;;;;;;8.52;4.60;;;;;;;2.03;84.28;93040.53;2071841;69;20148;-79
2023/11/08 05:46:13;;;;;;;11.65;5.20;;;;;;;2.03;83.25;93052.38;2071701;69;20544;-79
2023/11/08 05:48:40;;;;;;;12.77;7.05;;;;;;;2.01;82.64;93040.31;2071783;69;20183;-79
2023/11/08 05:51:09;;;;;;;13.05;7.18;;;;;;;1.99;82.91;93031.81;2071719;69;20143;-79
2023/11/08 05:53:35;;;;;;;19.02;10.45;;;;;;;1.96;82.74;93030.09;2071738;69;20152;-79
2023/11/08 05:56:01;;;;;;;18.63;9.15;;;;;;;1.96;83.03;93032.88;2071681;69;20158;-79
2023/11/08 05:58:26;;;;;;;14.20;7.85;;;;;;;1.98;83.02;93027.53;2071952;69;20148;-79
2023/11/08 06:00:52;;;;;;;16.33;8.52;;;;;;;1.90;83.23;93035.81;2071957;69;20602;-79
2023/11/08 06:03:17;;;;;;;15.88;8.48;;;;;;;1.80;83.27;93037.63;2071752;69;20144;-79
2023/11/08 06:05:43;;;;;;;16.33;8.02;;;;;;;1.86;83.11;93038.19;2071902;69;20609;-79
2023/11/08 06:08:09;;;;;;;15.82;8.80;;;;;;;1.92;82.54;93046.38;2071942;69;20633;-79
2023/11/08 06:10:35;;;;;;;11.95;6.95;;;;;;;1.88;82.77;93043.97;2071738;69;20151;-79
2023/11/08 06:13:05;;;;;;;11.35;7.03;;;;;;;1.89;82.75;93053.78;2071841;69;20152;-79
2023/11/08 06:15:30;;;;;;;21.80;9.25;;;;;;;1.43;83.75;93061.03;2071632;69;20633;-79
2023/11/08 06:17:56;;;;;;;63.35;10.43;;;;;;;1.66;83.88;93070.28;2071873;69;20160;-79
2023/11/08 06:20:22;;;;;;;13.02;7.20;;;;;;;1.80;84.05;93084.06;2071717;69;20148;-79
2023/11/08 06:22:49;;;;;;;68.43;7.57;;;;;;;1.63;84.17;93076.91;2071631;69;20231;-79
2023/11/08 06:25:15;;;;;;;17.38;6.72;;;;;;;1.49;85.74;93086.59;2071550;69;20148;-79
2023/11/08 06:27:40;;;;;;;16.15;5.18;;;;;;;1.77;85.66;93089.41;2071631;69;20176;-79
2023/11/08 06:30:08;;;;;;;85.72;9.63;;;;;;;1.67;85.06;93093.97;2071694;69;20590;-79
2023/11/08 06:32:35;;;;;;;13.93;7.00;;;;;;;1.95;84.39;93084.91;2071857;69;20166;-79
2023/11/08 06:35:02;;;;;;;73.35;8.40;;;;;;;1.83;84.44;93099.63;2071682;69;20128;-79
2023/11/08 06:37:28;;;;;;;128.18;10.98;;;;;;;1.63;85.40;93090.78;2071771;69;20142;-79
2023/11/08 06:39:55;;;;;;;72.03;9.23;;;;;;;1.83;85.01;93094.06;2071663;69;20148;-79
2023/11/08 06:42:22;;;;;;;10.82;6.45;;;;;;;1.91;84.57;93095.59;2071924;69;20175;-79
2023/11/08 06:44:48;;;;;;;44.70;7.70;;;;;;;2.04;84.28;93114.94;2071504;69;20607;-79
2023/11/08 06:47:15;;;;;;;25.92;7.57;;;;;;;2.12;84.17;93103.91;2071767;69;20583;-79
2023/11/08 06:49:41;;;;;;;69.93;10.00;;;;;;;2.13;83.98;93107.41;2071735;69;20586;-79
2023/11/08 06:52:06;;;;;;;74.07;10.23;;;;;;;2.00;84.30;93114.56;2071615;69;20140;-79
2023/11/08 06:54:33;;;;;;;36.05;10.32;;;;;;;2.00;84.75;93122.88;2071513;69;20657;-79
2023/11/08 06:56:59;;;;;;;69.15;10.18;;;;;;;2.01;84.38;93124.38;2071629;69;20263;-79
2023/11/08 06:59:25;;;;;;;41.85;9.35;;;;;;;2.07;84.20;93123.50;2071517;69;20286;-79
2023/11/08 07:01:51;;;;;;;61.17;9.55;;;;;;;2.00;84.36;93133.25;2071572;69;20128;-79
2023/11/08 07:04:16;;;;;;;63.80;10.57;;;;;;;2.02;84.76;93131.44;2071722;69;20634;-79
2023/11/08 07:06:42;;;;;;;71.40;10.80;;;;;;;2.01;85.03;93127.16;2071534;69;20136;-79
2023/11/08 07:09:11;;;;;;;73.97;10.07;;;;;;;2.00;84.61;93141.59;2071288;69;20213;-79
2023/11/08 07:11:37;;;;;;;43.55;10.18;;;;;;;2.07;85.00;93143.69;2068183;69;20167;-79
2023/11/08 07:14:03;;;;;;;35.42;9.82;;;;;;;2.20;84.50;93149.16;2071450;69;20167;-79
2023/11/08 07:16:29;;;;;;;43.67;10.50;;;;;;;2.21;84.32;93147.84;2071565;69;20528;-79
2023/11/08 07:18:56;;;;;;;27.08;9.90;;;;;;;2.25;84.32;93142.69;2071565;69;20147;-79
2023/11/08 07:21:22;;;;;;;51.40;10.15;;;;;;;2.23;83.31;93139.69;2071528;69;20144;-78
2023/11/08 07:23:48;;;;;;;53.92;10.98;;;;;;;2.13;84.13;93138.72;2071607;69;20159;-78
2023/11/08 07:26:15;;;;;;;45.78;11.60;;;;;;;2.17;84.55;93146.72;2071470;69;20152;-78
2023/11/08 07:28:45;;;;;;;63.03;9.95;;;;;;;2.29;83.58;93137.53;2071457;69;20192;-78
2023/11/08 07:31:11;;;;;;;111.55;12.40;;;;;;;2.21;83.73;93139.50;2071531;69;20150;-78
2023/11/08 07:33:37;;;;;;;34.33;11.32;;;;;;;2.29;83.45;93131.97;2071536;69;20133;-77
2023/11/08 07:36:04;;;;;;;43.55;11.40;;;;;;;2.27;83.96;93142.88;2071510;69;20704;-78
2023/11/08 07:38:30;;;;;;;39.90;10.00;;;;;;;2.29;83.71;93145.88;2071508;69;20144;-77
2023/11/08 07:40:58;;;;;;;201.07;17.52;;;;;;;1.38;84.92;93136.84;2071339;69;20630;-78
2023/11/08 07:43:24;;;;;;;69.47;16.50;;;;;;;1.76;86.12;93124.00;2071447;69;20261;-77
2023/11/08 07:45:50;;;;;;;133.68;21.05;;;;;;;1.79;85.02;93127.75;2071425;69;20600;-78
2023/11/08 07:48:16;;;;;;;102.70;16.60;;;;;;;1.26;86.06;93139.09;2067994;69;20156;-78
2023/11/08 07:50:42;;;;;;;140.80;21.02;;;;;;;1.18;88.42;93149.38;2071390;69;20589;-79
2023/11/08 07:53:07;;;;;;;57.60;18.08;;;;;;;1.80;86.75;93154.22;2068155;69;20180;-79
2023/11/08 07:55:33;;;;;;;34.22;17.27;;;;;;;2.00;85.93;93142.31;2071182;69;20152;-79
2023/11/08 07:58:00;;;;;;;20.77;12.75;;;;;;;2.11;85.17;93144.09;2071833;69;20168;-80
2023/11/08 08:00:27;;;;;;;24.95;13.00;;;;;;;1.95;84.66;93148.03;2071746;69;20159;-78
2023/11/08 08:02:53;;;;;;;20.13;12.90;;;;;;;1.97;84.80;93135.09;2068553;69;20145;-78
2023/11/08 08:05:20;;;;;;;27.17;15.00;;;;;;;2.06;84.46;93144.94;2071969;69;20164;-77
2023/11/08 08:07:48;;;;;;;17.98;12.20;;;;;;;2.16;84.46;93134.13;2071905;69;20286;-78
2023/11/08 08:10:14;;;;;;;12.40;8.88;;;;;;;2.67;84.61;93139.03;2071791;69;20140;-78
2023/11/08 08:12:40;;;;;;;45.95;15.13;;;;;;;2.38;85.55;93130.72;2072169;69;20155;-78
2023/11/08 08:15:07;;;;;;;22.30;13.50;;;;;;;3.16;85.68;93130.50;2071909;69;20163;-78
2023/11/08 08:17:34;;;;;;;28.60;14.88;;;;;;;3.54;84.93;93135.38;2071817;69;20152;-78
2023/11/08 08:20:04;;;;;;;77.45;15.02;;;;;;;3.26;84.56;93130.69;2071879;69;20155;-78
2023/11/08 08:22:31;;;;;;;36.45;22.25;;;;;;;3.92;83.02;93117.94;2071985;69;20152;-78
2023/11/08 08:24:59;;;;;;;42.63;25.63;;;;;;;4.11;82.35;93120.34;2071877;69;20144;-78
2023/11/08 08:27:25;;;;;;;31.90;18.85;;;;;;;4.45;80.23;93128.31;2071912;69;20141;-78
2023/11/08 08:29:51;;;;;;;31.58;15.88;;;;;;;4.62;82.35;93128.44;2072047;69;20147;-78
2023/11/08 08:32:17;;;;;;;21.55;13.40;;;;;;;4.68;81.22;93126.19;2071852;69;20574;-78
2023/11/08 08:34:44;;;;;;;27.60;16.70;;;;;;;5.35;82.53;93126.44;2071772;69;20602;-78
2023/11/08 08:37:10;;;;;;;29.40;17.67;;;;;;;5.58;80.67;93126.31;2071794;69;20620;-80
2023/11/08 08:39:36;;;;;;;18.95;11.95;;;;;;;5.73;78.13;93133.88;2071841;69;20236;-79
2023/11/08 08:42:05;;;;;;;25.73;15.27;;;;;;;5.92;79.64;93138.25;2071726;69;20144;-79
2023/11/08 08:44:33;;;;;;;16.60;10.43;;;;;;;6.29;77.57;93133.66;2071791;69;20151;-79
2023/11/08 08:47:00;;;;;;;15.48;9.85;;;;;;;6.47;77.98;93129.56;2068442;69;20151;-79
2023/11/08 08:49:26;;;;;;;14.85;8.45;;;;;;;6.63;77.08;93130.88;2071803;69;20152;-78
2023/11/08 08:51:51;;;;;;;14.70;8.07;;;;;;;6.43;75.54;93132.03;2071904;69;20156;-79
2023/11/08 08:54:20;;;;;;;14.23;7.82;;;;;;;7.01;74.63;93131.78;2071727;69;20152;-78
2023/11/08 08:56:49;;;;;;;12.63;6.68;;;;;;;7.17;72.50;93109.94;2071836;69;20497;-79
2023/11/08 08:59:15;;;;;;;9.63;5.53;;;;;;;7.28;72.44;93124.16;2071794;69;20140;-79
2023/11/08 09:01:41;;;;;;;5.63;4.00;;;;;;;7.78;72.34;93121.06;2071858;69;20596;-78
2023/11/08 09:04:08;;;;;;;6.40;4.28;;;;;;;7.76;69.31;93120.19;2071856;69;20565;-78
2023/11/08 09:06:34;;;;;;;7.75;3.63;;;;;;;7.93;67.63;93119.38;2071894;69;20227;-79
2023/11/08 09:09:01;;;;;;;3.80;2.58;;;;;;;8.28;67.22;93126.25;2068344;69;20139;-77
2023/11/08 09:11:26;;;;;;;4.97;4.05;;;;;;;8.14;66.97;93117.50;2068436;69;20172;-78
2023/11/08 09:13:53;;;;;;;6.80;4.60;;;;;;;7.99;68.92;93120.56;2071645;69;20227;-79
2023/11/08 09:16:20;;;;;;;7.13;3.92;;;;;;;8.70;66.79;93128.00;2072002;69;20276;-79
2023/11/08 09:18:45;;;;;;;6.28;3.85;;;;;;;8.84;66.58;93119.88;2071823;69;20148;-79
2023/11/08 09:21:11;;;;;;;6.07;3.55;;;;;;;9.00;67.33;93120.34;2071789;69;20143;-79
2023/11/08 09:23:40;;;;;;;10.50;6.47;;;;;;;9.27;65.05;93118.13;2071830;69;20638;-81
2023/11/08 09:26:07;;;;;;;5.80;3.80;;;;;;;7.87;66.87;93111.94;2071653;69;20508;-81
2023/11/08 09:28:33;;;;;;;3.30;2.05;;;;;;;7.98;66.10;93118.34;2071849;69;20219;-80
2023/11/08 09:30:59;;;;;;;4.15;2.38;;;;;;;9.35;64.03;93118.72;2071752;69;20558;-80
2023/11/08 09:33:24;;;;;;;3.03;2.13;;;;;;;9.77;60.96;93109.00;2071803;69;20137;-77
2023/11/08 09:35:50;;;;;;;2.83;1.98;;;;;;;10.37;58.79;93119.47;2071872;69;20500;-78
2023/11/08 09:38:15;;;;;;;1.75;1.50;;;;;;;10.42;57.31;93115.59;2071731;69;20151;-80
2023/11/08 09:40:41;;;;;;;3.70;1.35;;;;;;;10.64;55.32;93110.72;2071664;69;20160;-79
2023/11/08 09:43:07;;;;;;;3.40;1.45;;;;;;;10.18;54.97;93111.84;2071735;69;20144;-78
2023/11/08 09:45:33;;;;;;;3.58;1.30;;;;;;;10.59;54.84;93104.09;2071732;69;20136;-79
2023/11/08 09:47:59;;;;;;;3.65;2.10;;;;;;;11.20;55.32;93104.53;2071751;69;20201;-79
2023/11/08 09:50:25;;;;;;;2.58;1.60;;;;;;;10.74;55.03;93100.13;2071746;69;20136;-79
2023/11/08 09:52:51;;;;;;;3.15;1.70;;;;;;;11.42;54.71;93100.34;2071656;69;20146;-82
2023/11/08 09:55:19;;;;;;;2.47;1.65;;;;;;;11.51;51.33;93084.69;2071475;69;20588;-79
2023/11/08 09:57:45;;;;;;;4.60;1.70;;;;;;;10.93;53.38;93079.53;2071709;69;20137;-81
2023/11/08 10:00:12;;;;;;;3.50;1.60;;;;;;;11.66;51.04;93094.75;2068338;69;20233;-79
2023/11/08 10:02:41;;;;;;;2.90;1.90;;;;;;;11.49;50.70;93087.34;2071834;69;20155;-80
2023/11/08 10:05:07;;;;;;;2.33;1.50;;;;;;;11.80;52.67;93098.47;2071704;69;20152;-81
2023/11/08 10:07:37;;;;;;;2.53;1.92;;;;;;;12.52;52.57;93085.91;2071822;69;20146;-80
2023/11/08 10:10:03;;;;;;;2.95;1.70;;;;;;;13.89;50.25;93089.53;2071570;69;20132;-78
2023/11/08 10:12:32;;;;;;;1.85;1.50;;;;;;;12.14;50.57;93091.44;2071674;69;20186;-78
2023/11/08 10:15:02;;;;;;;3.25;1.50;;;;;;;13.39;51.50;93093.84;2071717;69;20285;-79
2023/11/08 10:17:42;;;;;;;4.47;1.77;;;;;;;14.91;49.40;93089.22;2068413;69;20120;-79
2023/11/08 10:20:18;;;;;;;4.03;2.05;;;;;;;14.58;47.43;93083.28;2071672;69;20191;-76
2023/11/08 10:22:47;;;;;;;3.22;2.10;;;;;;;15.90;46.84;93080.59;2071689;69;20136;-80
2023/11/08 10:25:13;;;;;;;2.67;1.80;;;;;;;15.99;46.12;93090.97;2071678;69;20596;-78
2023/11/08 10:27:41;;;;;;;2.53;1.83;;;;;;;16.58;45.55;93085.13;2072059;69;20213;-80
2023/11/08 10:30:21;;;;;;;2.22;1.58;;;;;;;15.35;44.58;93075.84;2071902;69;20171;-81
2023/11/08 10:32:47;;;;;;;8.05;3.25;;;;;;;15.43;47.02;93081.88;2072149;69;20286;-79
2023/11/08 10:35:14;;;;;;;2.72;2.20;;;;;;;17.52;43.81;93087.03;2071828;69;20221;-81
2023/11/08 10:37:41;;;;;;;2.92;2.53;;;;;;;19.31;41.47;93078.13;2071654;69;20139;-78
2023/11/08 10:40:12;;;;;;;3.10;1.77;;;;;;;18.82;41.24;93084.97;2071531;69;20603;-79
2023/11/08 10:42:40;;;;;;;3.03;1.73;;;;;;;19.80;40.00;93080.53;2071535;69;20318;-79
2023/11/08 10:45:08;;;;;;;4.47;2.28;;;;;;;19.18;40.93;93076.97;2071638;69;20230;-79
2023/11/08 10:47:39;;;;;;;5.10;2.90;;;;;;;21.26;36.76;93086.31;2071551;69;20144;-80
2023/11/08 10:50:06;;;;;;;1.33;1.10;;;;;;;20.32;36.68;93074.28;2071618;69;20611;-80
2023/11/08 10:52:37;;;;;;;2.95;1.25;;;;;;;22.60;34.01;93067.41;2071977;69;20148;-82
2023/11/08 10:55:06;;;;;;;4.30;1.45;;;;;;;24.38;32.23;93069.34;2071479;69;20673;-82
2023/11/08 10:57:36;;;;;;;4.20;1.08;;;;;;;24.29;32.60;93076.38;2071769;69;20286;-83
2023/11/08 11:00:07;;;;;;;1.50;1.08;;;;;;;25.19;32.68;93077.63;2071723;69;20151;-82
2023/11/08 11:02:41;;;;;;;3.53;1.60;;;;;;;21.17;34.31;93072.47;2071692;69;20176;-81
2023/11/08 11:05:09;;;;;;;3.58;1.60;;;;;;;21.44;33.14;93066.06;2071547;69;20330;-78
2023/11/08 11:07:42;;;;;;;1.38;1.20;;;;;;;22.71;32.53;93063.34;2071597;69;20157;-79
2023/11/08 11:10:09;;;;;;;2.13;1.77;;;;;;;24.03;31.37;93065.88;2071556;69;20152;-78
2023/11/08 11:12:37;;;;;;;2.38;1.60;;;;;;;26.16;30.66;93065.66;2071644;69;20152;-78
2023/11/08 11:15:11;;;;;;;1.10;0.98;;;;;;;26.56;28.66;93068.16;2071500;69;20156;-78
2023/11/08 11:18:02;;;;;;;1.55;1.02;;;;;;;25.65;28.44;93060.13;2071639;69;20148;-78
2023/11/08 11:20:34;;;;;;;5.75;2.38;;;;;;;27.61;27.94;93056.41;2071015;69;20154;-80
2023/11/08 11:23:00;;;;;;;2.20;1.77;;;;;;;28.87;25.72;93055.78;2071653;69;20247;-78
2023/11/08 11:25:46;;;;;;;7.43;6.10;;;;;;;29.01;25.64;93057.94;2071411;69;20236;-77
2023/11/08 11:28:11;;;;;;;1.65;1.25;;;;;;;28.78;25.18;93062.31;2071410;69;20155;-77
2023/11/08 11:30:37;;;;;;;2.05;1.23;;;;;;;27.57;27.07;93052.78;2071548;69;20140;-76
2023/11/08 11:33:04;;;;;;;0.98;0.80;;;;;;;27.53;27.54;93049.88;2071905;69;20250;-78
2023/11/08 11:35:30;;;;;;;1.98;1.08;;;;;;;28.70;26.08;93054.34;2071786;69;20190;-81